Time;durP1;ratioP1;P1;durP2;ratioP2;P2;SDS_P1;SDS_P2;PMS_P1;PMS_P2;Temp;Humidity;BMP_temperature;BMP_pressure;BME280_temperature;BME280_humidity;BME280_pressure;Samples;Min_cycle;Max_cycle;Signal;HPM_P1;HPM_P2
2024/01/04 00:02:12;;;;;;;;;1.00;1.00;;;;;10.05;100.00;100277.75;5034211;28;45364;-85
2024/01/04 00:04:40;;;;;;;;;1.67;1.00;;;;;10.37;100.00;100333.28;5038491;28;45511;-83
2024/01/04 00:07:05;;;;;;;;;1.00;1.00;;;;;9.95;100.00;100262.41;5040727;28;45250;-83
2024/01/04 00:09:31;;;;;;;;;2.67;1.00;;;;;10.31;100.00;100327.47;5040610;28;45241;-85
2024/01/04 00:11:56;;;;;;;;;3.00;0.00;;;;;10.07;100.00;100308.47;5053459;28;47230;-84
2024/01/04 00:14:21;;;;;;;;;4.00;0.00;;;;;10.26;100.00;100340.94;5040933;28;45347;-83
2024/01/04 00:16:47;;;;;;;;;2.00;0.00;;;;;10.26;100.00;100342.72;5040791;28;45530;-85
2024/01/04 00:19:12;;;;;;;;;1.00;0.67;;;;;9.99;100.00;100318.56;5039484;28;45628;-84
2024/01/04 00:21:37;;;;;;;;;3.33;1.00;;;;;9.89;100.00;100298.84;5040830;28;46525;-84
2024/01/04 00:24:03;;;;;;;;;0.67;0.67;;;;;10.17;100.00;100335.31;5039238;28;45357;-83
2024/01/04 00:26:29;;;;;;;;;0.00;0.00;;;;;9.67;100.00;100274.50;5041196;28;45430;-83
2024/01/04 00:28:54;;;;;;;;;1.00;0.00;;;;;9.89;100.00;100310.28;5040714;28;45486;-83
2024/01/04 00:31:19;;;;;;;;;2.67;1.00;;;;;9.95;100.00;100328.44;5033946;28;45270;-83
2024/01/04 00:33:44;;;;;;;;;2.00;1.00;;;;;10.08;100.00;100351.59;5037905;28;45316;-84
2024/01/04 00:36:11;;;;;;;;;1.67;1.00;;;;;9.65;100.00;100276.38;5038933;28;45329;-85
2024/01/04 00:38:36;;;;;;;;;1.00;0.00;;;;;9.55;100.00;100275.16;5038086;28;45501;-83
2024/01/04 00:41:02;;;;;;;;;1.00;1.00;;;;;10.18;100.00;100380.13;5040177;28;46265;-84
2024/01/04 00:43:27;;;;;;;;;2.67;0.33;;;;;9.69;100.00;100286.69;5037471;28;45361;-84
2024/01/04 00:45:52;;;;;;;;;2.67;1.00;;;;;10.16;100.00;100384.66;5039765;28;45486;-83
2024/01/04 00:48:18;;;;;;;;;2.67;0.67;;;;;9.74;100.00;100323.44;5032405;28;45436;-83
2024/01/04 00:50:43;;;;;;;;;2.67;2.00;;;;;9.41;100.00;100283.75;5038723;28;47716;-83
2024/01/04 00:53:09;;;;;;;;;2.00;0.67;;;;;9.71;100.00;100336.78;5039782;28;45428;-83
2024/01/04 00:55:34;;;;;;;;;2.00;1.00;;;;;9.70;100.00;100341.22;5039541;28;45499;-83
2024/01/04 00:58:02;;;;;;;;;1.00;1.00;;;;;9.78;100.00;100339.03;5053541;28;45726;-83
2024/01/04 01:00:27;;;;;;;;;2.67;1.00;;;;;9.94;100.00;100384.03;5039650;28;45378;-84
2024/01/04 01:02:53;;;;;;;;;0.33;0.33;;;;;9.68;100.00;100356.28;5033390;28;45373;-84
2024/01/04 01:05:18;;;;;;;;;2.00;1.00;;;;;9.91;100.00;100398.22;5039777;28;45249;-83
2024/01/04 01:07:44;;;;;;;;;1.00;0.00;;;;;9.92;100.00;100401.72;5055378;28;45337;-84
2024/01/04 01:10:09;;;;;;;;;1.33;0.00;;;;;9.56;100.00;100334.91;5039486;28;45518;-83
2024/01/04 01:12:34;;;;;;;;;3.00;2.00;;;;;9.62;100.00;100347.84;5035942;28;45424;-83
2024/01/04 01:15:00;;;;;;;;;2.00;1.67;;;;;9.34;100.00;100322.81;5039908;28;45925;-83
2024/01/04 01:17:25;;;;;;;;;4.33;1.00;;;;;9.67;100.00;100396.81;5038846;28;45466;-83
2024/01/04 01:19:50;;;;;;;;;0.67;0.67;;;;;9.87;100.00;100404.59;5038655;28;45574;-83
2024/01/04 01:22:16;;;;;;;;;3.00;0.00;;;;;9.62;100.00;100395.34;5039516;28;45404;-83
2024/01/04 01:24:41;;;;;;;;;0.00;0.00;;;;;9.75;100.00;100391.16;5040694;28;45372;-84
2024/01/04 01:27:06;;;;;;;;;2.00;0.00;;;;;9.71;100.00;100402.81;5041425;28;45452;-84
2024/01/04 01:29:32;;;;;;;;;4.67;1.00;;;;;9.64;100.00;100389.06;5040547;28;46428;-84
2024/01/04 01:31:57;;;;;;;;;1.33;0.00;;;;;9.60;100.00;100386.63;5036624;28;45444;-83
2024/01/04 01:34:22;;;;;;;;;2.67;1.00;;;;;9.62;100.00;100387.44;5037260;28;45520;-84
2024/01/04 01:36:48;;;;;;;;;5.67;1.00;;;;;9.85;100.00;100437.28;5039473;28;45493;-84
2024/01/04 01:39:13;;;;;;;;;2.33;1.00;;;;;9.21;100.00;100324.34;5054765;28;47749;-84
2024/01/04 01:41:38;;;;;;;;;2.00;0.00;;;;;9.77;100.00;100424.47;5040093;28;45434;-84
2024/01/04 01:44:04;;;;;;;;;1.67;1.00;;;;;9.45;100.00;100366.28;5054906;28;45443;-84
2024/01/04 01:46:29;;;;;;;;;1.33;0.33;;;;;9.74;100.00;100424.63;5037497;28;45353;-84
2024/01/04 01:48:55;;;;;;;;;1.67;0.67;;;;;9.51;100.00;100406.44;5038968;28;45537;-84
2024/01/04 01:51:20;;;;;;;;;1.33;1.00;;;;;9.16;100.00;100328.16;5037496;28;45464;-84
2024/01/04 01:53:46;;;;;;;;;0.67;0.67;;;;;9.57;100.00;100408.78;5054120;28;45445;-84
2024/01/04 01:56:12;;;;;;;;;2.00;1.00;;;;;9.83;100.00;100453.22;5036218;28;45403;-84
2024/01/04 01:58:37;;;;;;;;;0.00;0.00;;;;;9.88;100.00;100488.19;5038505;28;46146;-84
2024/01/04 02:01:03;;;;;;;;;2.00;0.33;;;;;9.39;100.00;100413.16;5039224;28;45768;-84
2024/01/04 02:03:28;;;;;;;;;1.00;1.00;;;;;9.84;100.00;100477.84;5037370;28;45637;-85
2024/01/04 02:05:54;;;;;;;;;1.33;0.00;;;;;9.39;100.00;100409.69;5036355;28;45456;-86
2024/01/04 02:08:19;;;;;;;;;0.00;0.00;;;;;9.39;100.00;100428.16;5040959;28;47011;-85
2024/01/04 02:10:46;;;;;;;;;5.33;0.33;;;;;9.50;100.00;100441.66;5052512;28;45454;-84
2024/01/04 02:13:12;;;;;;;;;2.00;2.00;;;;;9.12;100.00;100389.88;5038436;28;45801;-84
2024/01/04 02:15:37;;;;;;;;;1.00;1.00;;;;;9.19;100.00;100428.25;5054172;28;45567;-84
2024/01/04 02:18:03;;;;;;;;;0.00;0.00;;;;;9.07;100.00;100386.59;5037084;28;45511;-84
2024/01/04 02:20:28;;;;;;;;;1.00;0.00;;;;;9.50;100.00;100472.50;5038697;28;45442;-85
2024/01/04 02:22:54;;;;;;;;;1.67;1.00;;;;;9.46;100.00;100460.41;5037041;28;45566;-84
2024/01/04 02:25:19;;;;;;;;;2.00;0.33;;;;;9.25;100.00;100422.69;5037264;28;45577;-84
2024/01/04 02:27:44;;;;;;;;;4.67;1.00;;;;;9.72;100.00;100518.91;5037582;28;48131;-84
2024/01/04 02:30:13;;;;;;;;;2.00;0.00;;;;;9.48;100.00;100485.78;5033663;28;46080;-86
2024/01/04 02:32:38;;;;;;;;;1.00;1.00;;;;;9.51;100.00;100492.69;5038793;28;45282;-85
2024/01/04 02:35:05;;;;;;;;;3.00;0.00;;;;;9.58;100.00;100520.50;5039240;28;45230;-84
2024/01/04 02:37:30;;;;;;;;;1.67;1.00;;;;;9.57;100.00;100516.16;5039059;28;45901;-85
2024/01/04 02:39:56;;;;;;;;;2.00;0.00;;;;;9.31;100.00;100467.25;5052655;28;45466;-83
2024/01/04 02:42:21;;;;;;;;;1.00;0.00;;;;;9.74;100.00;100527.63;5037272;28;45456;-85
2024/01/04 02:44:46;;;;;;;;;0.00;0.00;;;;;9.33;100.00;100470.66;5037545;28;45437;-84
2024/01/04 02:47:12;;;;;;;;;1.33;1.00;;;;;9.53;100.00;100489.03;5037886;28;45457;-84
2024/01/04 02:49:38;;;;;;;;;3.00;0.67;;;;;9.54;100.00;100496.03;5033613;28;45473;-84
2024/01/04 02:52:04;;;;;;;;;5.00;1.33;;;;;9.60;100.00;100511.59;5037075;28;45531;-84
2024/01/04 02:54:29;;;;;;;;;1.00;1.00;;;;;9.62;100.00;100527.38;5051159;28;45309;-83
2024/01/04 02:56:55;;;;;;;;;1.33;1.00;;;;;9.63;100.00;100516.72;5038292;28;45402;-83
2024/01/04 02:59:20;;;;;;;;;1.67;0.33;;;;;9.56;100.00;100512.66;5038659;28;45481;-84
2024/01/04 03:01:48;;;;;;;;;2.00;2.00;;;;;9.90;100.00;100567.38;5048225;28;46680;-84
2024/01/04 03:04:14;;;;;;;;;1.00;0.00;;;;;9.40;100.00;100499.34;5033684;28;45210;-84
2024/01/04 03:06:39;;;;;;;;;2.00;0.00;;;;;9.67;100.00;100514.78;5036482;28;47679;-84
2024/01/04 03:09:07;;;;;;;;;3.00;2.00;;;;;9.61;100.00;100497.47;5057186;28;46035;-84
2024/01/04 03:11:32;;;;;;;;;0.67;0.67;;;;;9.48;100.00;100490.19;5038839;28;45566;-84
2024/01/04 03:13:58;;;;;;;;;2.00;0.00;;;;;9.19;100.00;100455.50;5056581;28;45572;-84
2024/01/04 03:16:23;;;;;;;;;3.67;0.00;;;;;9.39;100.00;100521.38;5040416;28;46957;-83
2024/01/04 03:18:48;;;;;;;;;4.00;0.00;;;;;9.36;100.00;100513.59;5041347;28;45386;-83
2024/01/04 03:21:14;;;;;;;;;0.67;0.00;;;;;9.67;100.00;100559.69;5041689;28;45673;-83
2024/01/04 03:23:40;;;;;;;;;2.00;0.67;;;;;9.64;100.00;100550.13;5056534;28;45472;-83
2024/01/04 03:26:05;;;;;;;;;1.00;1.00;;;;;9.32;100.00;100509.41;5041732;28;45352;-83
2024/01/04 03:28:31;;;;;;;;;2.33;1.00;;;;;9.36;100.00;100521.50;5041505;28;45198;-83
2024/01/04 03:30:56;;;;;;;;;2.00;1.00;;;;;9.43;100.00;100511.53;5054258;28;45398;-84
2024/01/04 03:33:21;;;;;;;;;3.00;2.00;;;;;9.29;100.00;100500.78;5038704;28;45297;-83
2024/01/04 03:35:47;;;;;;;;;3.33;1.00;;;;;9.28;100.00;100502.56;5041419;28;45423;-83
2024/01/04 03:38:12;;;;;;;;;2.33;1.00;;;;;9.64;100.00;100542.19;5042131;28;45338;-84
2024/01/04 03:40:38;;;;;;;;;3.67;1.00;;;;;9.39;100.00;100517.91;5056609;28;45414;-83
2024/01/04 03:43:04;;;;;;;;;2.67;1.00;;;;;9.52;100.00;100547.22;5056850;28;45801;-83
2024/01/04 03:45:31;;;;;;;;;3.67;0.00;;;;;9.20;100.00;100464.22;5041090;28;46199;-83
2024/01/04 03:47:57;;;;;;;;;1.33;0.00;;;;;9.54;100.00;100522.44;5041072;28;45450;-84
2024/01/04 03:50:22;;;;;;;;;1.33;1.33;;;;;9.40;100.00;100506.38;5036530;28;45406;-85
2024/01/04 03:52:48;;;;;;;;;1.00;1.00;;;;;9.86;100.00;100577.22;5025994;28;45487;-84
2024/01/04 03:55:15;;;;;;;;;1.00;1.00;;;;;9.70;100.00;100568.31;5039854;28;45506;-83
2024/01/04 03:57:43;;;;;;;;;2.33;1.00;;;;;9.58;100.00;100526.66;5041155;28;45471;-85
2024/01/04 04:00:09;;;;;;;;;2.67;1.00;;;;;9.49;100.00;100536.78;5040890;28;45387;-85
2024/01/04 04:02:34;;;;;;;;;2.00;0.00;;;;;9.39;100.00;100510.81;5040885;28;45325;-83
2024/01/04 04:05:00;;;;;;;;;0.33;0.33;;;;;9.66;100.00;100540.34;5040591;28;46112;-82
2024/01/04 04:07:25;;;;;;;;;0.00;0.00;;;;;9.70;100.00;100563.03;5040711;28;45474;-84
2024/01/04 04:09:50;;;;;;;;;3.00;0.00;;;;;9.48;100.00;100524.50;5041125;28;45586;-84
2024/01/04 04:12:16;;;;;;;;;2.33;2.00;;;;;9.70;100.00;100562.16;5040366;28;45458;-85
2024/01/04 04:14:41;;;;;;;;;2.33;0.33;;;;;9.37;100.00;100509.16;5040517;28;46348;-84
2024/01/04 04:17:07;;;;;;;;;3.33;2.00;;;;;9.35;100.00;100511.03;5038672;28;45360;-85
2024/01/04 04:19:32;;;;;;;;;2.67;1.00;;;;;9.53;100.00;100554.19;5040696;28;45550;-85
2024/01/04 04:21:58;;;;;;;;;2.67;0.00;;;;;9.39;100.00;100525.81;5040313;28;45549;-85
2024/01/04 04:24:24;;;;;;;;;1.00;1.00;;;;;9.66;100.00;100571.16;5039060;28;47235;-84
2024/01/04 04:26:49;;;;;;;;;0.00;0.00;;;;;9.23;100.00;100515.09;5039118;28;45507;-84
2024/01/04 04:29:14;;;;;;;;;3.67;0.00;;;;;9.58;100.00;100568.03;5040742;28;45473;-85
2024/01/04 04:31:40;;;;;;;;;0.00;0.00;;;;;9.75;100.00;100600.63;5040202;28;45478;-84
2024/01/04 04:34:05;;;;;;;;;1.00;0.00;;;;;9.27;100.00;100537.78;5039674;28;46533;-84
2024/01/04 04:36:31;;;;;;;;;1.00;1.00;;;;;9.25;100.00;100530.84;5040536;28;45363;-85
2024/01/04 04:39:00;;;;;;;;;0.00;0.00;;;;;9.65;100.00;100614.34;5038502;28;45376;-84
2024/01/04 04:41:26;;;;;;;;;1.00;0.67;;;;;9.42;100.00;100581.94;5040430;28;45606;-84
2024/01/04 04:43:51;;;;;;;;;2.00;1.00;;;;;9.52;100.00;100594.72;5039279;28;46155;-84
2024/01/04 04:46:18;;;;;;;;;1.00;1.00;;;;;9.51;100.00;100607.06;5040247;28;45407;-84
2024/01/04 04:48:43;;;;;;;;;4.00;1.00;;;;;9.31;100.00;100583.34;5040261;28;45496;-85
2024/01/04 04:51:10;;;;;;;;;4.50;1.00;;;;;9.24;100.00;100576.63;5055713;28;45530;-83
2024/01/04 04:53:35;;;;;;;;;4.67;1.00;;;;;9.11;100.00;100551.72;5039804;28;46411;-82
2024/01/04 04:56:00;;;;;;;;;2.33;1.00;;;;;9.10;100.00;100573.75;5040590;28;45420;-84
2024/01/04 04:58:29;;;;;;;;;4.00;0.67;;;;;9.07;100.00;100572.13;5040486;28;45586;-84
2024/01/04 05:00:55;;;;;;;;;9.00;1.67;;;;;8.87;100.00;100528.16;5040489;28;45466;-84
2024/01/04 05:03:20;;;;;;;;;1.33;1.00;;;;;9.44;100.00;100645.22;5039366;28;46288;-84
2024/01/04 05:05:45;;;;;;;;;0.00;0.00;;;;;9.44;100.00;100650.50;5051685;28;45309;-84
2024/01/04 05:08:11;;;;;;;;;1.00;0.67;;;;;9.17;100.00;100589.25;5035532;28;45807;-84
2024/01/04 05:10:36;;;;;;;;;2.33;0.00;;;;;8.77;100.00;100537.41;5039921;28;45495;-84
2024/01/04 05:13:02;;;;;;;;;0.33;0.33;;;;;9.07;100.00;100601.13;5039618;28;46976;-84
2024/01/04 05:15:27;;;;;;;;;1.00;0.33;;;;;8.79;100.00;100556.66;5039229;28;45442;-84
2024/01/04 05:17:53;;;;;;;;;2.33;0.00;;;;;8.83;100.00;100570.56;5038704;28;45482;-83
2024/01/04 05:20:19;;;;;;;;;6.33;0.33;;;;;9.37;100.00;100651.69;5039075;28;45645;-84
2024/01/04 05:22:44;;;;;;;;;2.00;1.00;;;;;9.31;100.00;100646.69;5039234;28;46402;-84
2024/01/04 05:25:14;;;;;;;;;0.00;0.00;;;;;9.29;100.00;100654.66;5032672;28;45866;-83
2024/01/04 05:27:40;;;;;;;;;2.00;1.00;;;;;9.10;100.00;100632.66;5039285;28;45373;-84
2024/01/04 05:30:07;;;;;;;;;2.33;1.00;;;;;9.07;100.00;100629.28;5039556;28;45376;-84
2024/01/04 05:32:34;;;;;;;;;1.67;1.00;;;;;9.37;100.00;100662.25;5037251;28;46673;-84
2024/01/04 05:34:59;;;;;;;;;7.00;1.00;;;;;9.01;100.00;100625.16;5038890;28;45603;-84
2024/01/04 05:37:24;;;;;;;;;1.00;0.00;;;;;9.13;100.00;100639.59;5039104;28;45331;-84
2024/01/04 05:39:50;;;;;;;;;1.00;1.00;;;;;8.92;100.00;100611.50;5039005;28;45360;-84
2024/01/04 05:42:15;;;;;;;;;2.00;1.00;;;;;9.20;100.00;100667.41;5039018;28;45678;-84
2024/01/04 05:44:40;;;;;;;;;0.33;0.33;;;;;9.17;100.00;100663.13;5038016;28;45412;-84
2024/01/04 05:47:07;;;;;;;;;5.00;1.00;;;;;8.75;100.00;100597.28;5038689;28;46167;-84
2024/01/04 05:49:32;;;;;;;;;0.67;0.67;;;;;8.99;100.00;100653.38;5055221;28;45251;-84
2024/01/04 05:51:57;;;;;;;;;1.33;1.00;;;;;9.01;100.00;100648.03;5038264;28;45482;-84
2024/01/04 05:54:23;;;;;;;;;1.00;1.00;;;;;8.75;100.00;100604.31;5028136;28;45440;-84
2024/01/04 05:56:48;;;;;;;;;0.00;0.00;;;;;8.85;100.00;100617.03;5037958;28;45499;-84
2024/01/04 05:59:14;;;;;;;;;2.00;0.33;;;;;8.58;100.00;100583.94;5054777;28;45476;-84
2024/01/04 06:01:39;;;;;;;;;1.33;1.00;;;;;8.59;100.00;100579.53;5039547;28;45656;-84
2024/01/04 06:04:05;;;;;;;;;4.00;2.00;;;;;8.61;100.00;100602.25;5038413;28;45347;-83
2024/01/04 06:06:31;;;;;;;;;3.00;1.00;;;;;8.64;100.00;100625.84;5037978;28;45533;-84
2024/01/04 06:08:56;;;;;;;;;1.33;1.00;;;;;8.69;100.00;100629.16;5038856;28;45499;-84
2024/01/04 06:11:21;;;;;;;;;1.00;1.00;;;;;8.49;100.00;100601.91;5038872;28;45339;-84
2024/01/04 06:13:47;;;;;;;;;1.00;0.33;;;;;9.02;100.00;100698.09;5054042;28;45529;-84
2024/01/04 06:16:12;;;;;;;;;0.00;0.00;;;;;8.75;100.00;100660.53;5037534;28;45484;-84
2024/01/04 06:18:37;;;;;;;;;0.00;0.00;;;;;8.89;100.00;100692.47;5053124;28;45465;-84
2024/01/04 06:21:05;;;;;;;;;2.67;1.00;;;;;8.77;100.00;100673.66;5037125;28;48139;-84
2024/01/04 06:23:31;;;;;;;;;1.67;0.67;;;;;8.53;100.00;100633.38;5038418;28;45337;-84
2024/01/04 06:25:56;;;;;;;;;2.67;1.00;;;;;8.95;100.00;100695.75;5038962;28;45393;-84
2024/01/04 06:28:23;;;;;;;;;3.00;1.00;;;;;8.60;100.00;100637.47;5038240;28;45656;-83
2024/01/04 06:30:48;;;;;;;;;3.00;2.00;;;;;9.00;100.00;100699.91;5038276;28;46296;-84
2024/01/04 06:33:14;;;;;;;;;1.00;1.00;;;;;8.84;100.00;100672.47;5038517;28;45341;-83
2024/01/04 06:35:40;;;;;;;;;1.67;0.00;;;;;8.86;100.00;100678.56;5036716;28;45234;-83
2024/01/04 06:38:08;;;;;;;;;1.67;1.00;;;;;8.75;100.00;100633.31;5038227;28;45386;-83
2024/01/04 06:40:39;;;;;;;;;1.67;1.33;;;;;8.97;100.00;100678.94;5052544;28;47338;-82
2024/01/04 06:43:08;;;;;;;;;2.00;1.00;;;;;9.02;100.00;100669.06;5038016;28;45234;-84
2024/01/04 06:45:36;;;;;;;;;1.33;0.00;;;;;9.15;100.00;100694.00;5037756;28;45407;-85
2024/01/04 06:48:02;;;;;;;;;2.67;1.00;;;;;9.12;100.00;100680.09;5035626;28;45558;-85
2024/01/04 06:50:28;;;;;;;;;1.67;1.00;;;;;9.13;100.00;100674.72;5036439;28;47945;-85
2024/01/04 06:52:54;;;;;;;;;1.00;1.00;;;;;9.06;100.00;100664.53;5053366;28;45720;-84
2024/01/04 06:55:19;;;;;;;;;0.00;0.00;;;;;9.43;100.00;100739.38;5037882;28;45285;-85
2024/01/04 06:57:44;;;;;;;;;2.33;1.00;;;;;9.12;100.00;100659.84;5038142;28;47207;-84
2024/01/04 07:00:10;;;;;;;;;2.33;1.00;;;;;9.00;100.00;100635.78;5038488;28;45370;-85
2024/01/04 07:02:36;;;;;;;;;2.33;1.00;;;;;9.50;100.00;100745.25;5053214;28;45514;-85
2024/01/04 07:05:06;;;;;;;;;1.00;1.00;;;;;9.06;100.00;100648.69;5038537;28;45501;-85
2024/01/04 07:07:32;;;;;;;;;4.00;2.00;;;;;9.42;100.00;100710.44;5032546;28;45360;-85
2024/01/04 07:09:58;;;;;;;;;2.00;1.00;;;;;9.56;100.00;100729.13;5043125;28;47773;-85
2024/01/04 07:12:26;;;;;;;;;2.33;1.67;;;;;9.59;100.00;100736.91;5035413;28;45348;-86
2024/01/04 07:14:53;;;;;;;;;5.00;2.00;;;;;9.23;100.00;100672.53;5054175;28;45482;-86
2024/01/04 07:17:18;;;;;;;;;2.00;1.00;;;;;9.02;100.00;100642.69;5034971;28;45478;-85
2024/01/04 07:19:44;;;;;;;;;1.00;0.67;;;;;9.55;100.00;100747.72;5037971;28;45672;-85
2024/01/04 07:22:10;;;;;;;;;2.00;0.00;;;;;9.25;100.00;100699.75;5037849;28;45447;-85
2024/01/04 07:24:36;;;;;;;;;2.00;1.00;;;;;8.84;100.00;100619.75;5037398;28;45277;-85
2024/01/04 07:27:03;;;;;;;;;3.00;2.00;;;;;8.90;100.00;100643.19;5033275;28;45572;-85
2024/01/04 07:29:28;;;;;;;;;3.00;1.00;;;;;9.29;100.00;100709.25;5035015;28;45440;-85
2024/01/04 07:31:55;;;;;;;;;2.00;1.00;;;;;9.18;100.00;100728.19;5037185;28;45287;-85
2024/01/04 07:34:21;;;;;;;;;6.33;1.33;;;;;9.00;100.00;100676.19;5037648;28;45438;-84
2024/01/04 07:36:47;;;;;;;;;0.00;0.00;;;;;9.36;100.00;100750.25;5037436;28;45344;-85
2024/01/04 07:39:14;;;;;;;;;2.00;1.33;;;;;8.84;100.00;100686.53;5036040;28;48338;-84
2024/01/04 07:41:41;;;;;;;;;0.33;0.33;;;;;8.74;100.00;100661.47;5037067;28;45501;-85
2024/01/04 07:44:07;;;;;;;;;0.00;0.00;;;;;8.59;100.00;100638.38;5034110;28;45489;-85
2024/01/04 07:46:32;;;;;;;;;3.00;1.00;;;;;8.97;100.00;100697.41;5036118;28;45889;-87
2024/01/04 07:48:58;;;;;;;;;1.33;1.00;;;;;9.16;100.00;100760.84;5052178;28;46905;-86
2024/01/04 07:51:24;;;;;;;;;2.33;1.00;;;;;8.79;100.00;100699.06;5050731;28;45629;-84
2024/01/04 07:53:49;;;;;;;;;2.33;1.67;;;;;8.85;100.00;100719.03;5041129;28;45313;-85
2024/01/04 07:56:15;;;;;;;;;3.00;1.00;;;;;9.05;100.00;100750.72;5056363;28;45420;-85
2024/01/04 07:58:40;;;;;;;;;1.67;1.67;;;;;8.87;100.00;100715.41;5039649;28;47573;-86
2024/01/04 08:01:06;;;;;;;;;2.00;1.00;;;;;8.73;100.00;100696.69;5057852;28;45286;-85
2024/01/04 08:03:32;;;;;;;;;4.00;1.00;;;;;9.16;100.00;100755.56;5039769;28;45480;-85
2024/01/04 08:05:57;;;;;;;;;2.00;0.00;;;;;9.11;100.00;100750.47;5040548;28;45386;-86
2024/01/04 08:08:22;;;;;;;;;12.00;1.00;;;;;9.15;100.00;100764.38;5039242;28;47777;-84
2024/01/04 08:10:48;;;;;;;;;2.00;1.00;;;;;9.13;100.00;100774.16;5040845;28;45410;-85
2024/01/04 08:13:16;;;;;;;;;2.00;1.00;;;;;8.81;100.00;100698.97;5040721;28;45486;-84
2024/01/04 08:15:42;;;;;;;;;2.33;2.33;;;;;9.03;100.00;100744.63;5052939;28;45541;-85
2024/01/04 08:18:07;;;;;;;;;3.00;2.00;;;;;8.73;100.00;100690.53;5035624;28;46664;-85
2024/01/04 08:20:33;;;;;;;;;4.33;2.33;;;;;8.99;100.00;100737.78;5039712;28;45434;-85
2024/01/04 08:22:58;;;;;;;;;4.00;2.00;;;;;8.63;100.00;100686.56;5040970;28;45437;-85
2024/01/04 08:25:24;;;;;;;;;4.67;2.00;;;;;8.26;100.00;100611.59;5054960;28;45397;-85
2024/01/04 08:27:49;;;;;;;;;2.33;1.00;;;;;9.05;100.00;100760.41;5039977;28;45378;-85
2024/01/04 08:30:14;;;;;;;;;3.33;1.33;;;;;8.70;100.00;100701.22;5039847;28;45278;-85
2024/01/04 08:32:40;;;;;;;;;1.67;1.67;;;;;8.57;100.00;100679.78;5055485;28;45327;-85
2024/01/04 08:35:07;;;;;;;;;1.00;1.00;;;;;8.78;100.00;100707.03;5054346;28;45415;-85
2024/01/04 08:37:32;;;;;;;;;2.67;1.00;;;;;8.82;100.00;100720.03;5038264;28;47429;-85
2024/01/04 08:39:57;;;;;;;;;4.67;2.00;;;;;8.34;100.00;100629.78;5034627;28;45464;-85
2024/01/04 08:42:23;;;;;;;;;5.00;2.00;;;;;8.61;100.00;100693.66;5055225;28;45457;-85
2024/01/04 08:44:48;;;;;;;;;4.67;2.00;;;;;8.63;100.00;100682.16;5040334;28;45587;-85
2024/01/04 08:47:14;;;;;;;;;3.67;2.00;;;;;8.52;100.00;100647.47;5039299;28;45580;-85
2024/01/04 08:49:39;;;;;;;;;2.00;1.67;;;;;9.03;100.00;100741.16;5055575;28;45478;-86
2024/01/04 08:52:05;;;;;;;;;3.67;0.00;;;;;9.02;100.00;100742.06;5040427;28;45435;-86
2024/01/04 08:54:30;;;;;;;;;4.00;1.00;;;;;8.64;100.00;100670.66;5055645;28;45609;-86
2024/01/04 08:56:56;;;;;;;;;3.33;0.67;;;;;8.61;100.00;100668.16;5037298;28;46345;-86
2024/01/04 08:59:21;;;;;;;;;2.00;2.00;;;;;8.57;100.00;100677.13;5038602;28;45499;-85
2024/01/04 09:01:46;;;;;;;;;1.00;1.00;;;;;8.59;100.00;100662.09;5038684;28;45294;-83
2024/01/04 09:04:12;;;;;;;;;2.00;1.00;;;;;8.97;100.00;100707.97;5037441;28;45464;-84
2024/01/04 09:06:38;;;;;;;;;7.67;1.00;;;;;8.82;100.00;100685.75;5054419;28;47791;-83
2024/01/04 09:09:07;;;;;;;;;1.00;1.00;;;;;8.45;100.00;100619.63;5038940;28;45400;-84
2024/01/04 09:11:38;;;;;;;;;3.00;1.33;;;;;9.20;100.00;100742.16;5039889;28;45502;-85
2024/01/04 09:14:07;;;;;;;;;3.00;1.00;;;;;9.17;100.00;100749.34;5038872;28;45560;-84
2024/01/04 09:16:55;;;;;;;;;1.00;1.00;;;;;9.29;100.00;100762.03;5054763;28;45499;-85
2024/01/04 09:19:21;;;;;;;;;8.00;2.00;;;;;9.33;100.00;100769.72;5027580;28;45489;-84
2024/01/04 09:21:48;;;;;;;;;3.33;2.00;;;;;8.80;100.00;100640.09;5028585;28;45507;-86
2024/01/04 09:24:36;;;;;;;;;4.00;2.00;;;;;8.96;100.00;100666.72;5036110;28;45369;-84
2024/01/04 09:27:02;;;;;;;;;3.67;2.00;;;;;9.43;100.00;100768.41;5054487;28;46947;-86
2024/01/04 09:29:28;;;;;;;;;4.33;2.00;;;;;9.19;100.00;100724.63;5042788;28;45471;-87
2024/01/04 09:31:55;;;;;;;;;1.00;1.00;;;;;9.23;100.00;100712.13;5032494;28;45932;-86
2024/01/04 09:34:20;;;;;;;;;2.67;2.00;;;;;9.08;100.00;100679.34;5053889;28;45522;-86
2024/01/04 09:36:46;;;;;;;;;6.00;2.00;;;;;8.81;100.00;100617.22;5035731;28;46932;-85
2024/01/04 09:39:17;;;;;;;;;1.33;1.33;;;;;8.89;100.00;100626.56;5036948;28;45479;-86
2024/01/04 09:41:44;;;;;;;;;7.67;3.33;;;;;9.36;100.00;100700.13;5035820;28;45427;-88
2024/01/04 09:44:11;;;;;;;;;4.33;3.00;;;;;9.42;100.00;100713.06;5038680;28;45546;-86
2024/01/04 09:46:38;;;;;;;;;5.67;2.33;;;;;9.36;100.00;100695.69;5054586;28;47669;-85
2024/01/04 09:49:04;;;;;;;;;6.67;3.00;;;;;9.32;100.00;100699.41;5035300;28;45491;-85
2024/01/04 09:51:33;;;;;;;;;1.33;1.33;;;;;9.84;100.00;100766.63;5030809;28;45405;-83
2024/01/04 09:54:01;;;;;;;;;4.00;2.33;;;;;9.28;100.00;100667.94;5035766;28;45588;-83
2024/01/04 09:56:28;;;;;;;;;4.00;2.00;;;;;9.62;100.00;100696.34;5035712;28;46453;-84
2024/01/04 09:58:54;;;;;;;;;7.67;3.00;;;;;9.53;100.00;100665.91;5031545;28;45910;-85
2024/01/04 10:01:24;;;;;;;;;10.33;2.67;;;;;9.42;100.00;100655.00;5044784;28;45381;-86
2024/01/04 10:03:52;;;;;;;;;7.00;3.00;;;;;9.58;100.00;100658.66;5034528;28;45436;-85
2024/01/04 10:06:37;;;;;;;;;4.00;3.00;;;;;9.72;100.00;100661.50;5031035;28;47257;-85
2024/01/04 10:09:15;;;;;;;;;3.67;3.33;;;;;10.34;100.00;100745.00;5046860;28;45460;-85
2024/01/04 10:12:05;;;;;;;;;1.67;1.67;;;;;9.76;100.00;100628.75;5030975;28;45496;-84
2024/01/04 10:14:31;;;;;;;;;3.00;2.00;;;;;9.89;100.00;100626.38;5022862;28;45539;-85
2024/01/04 10:16:57;;;;;;;;;1.67;1.00;;;;;10.18;100.00;100669.97;5043353;28;47460;-85
2024/01/04 10:19:23;;;;;;;;;9.00;4.33;;;;;10.74;100.00;100734.19;5027458;28;45513;-86
2024/01/04 10:21:50;;;;;;;;;18.00;16.33;;;;;10.91;100.00;100758.03;5044775;28;45484;-85
2024/01/04 10:24:23;;;;;;;;;8.33;6.00;;;;;10.37;100.00;100629.34;5039291;28;45576;-85
2024/01/04 10:27:00;;;;;;;;;6.33;4.00;;;;;10.78;100.00;100708.44;5033561;28;47092;-88
2024/01/04 10:29:26;;;;;;;;;8.33;4.67;;;;;10.86;100.00;100706.28;5032943;28;45398;-85
2024/01/04 10:32:11;;;;;;;;;6.33;3.00;;;;;10.78;100.00;100701.38;5032079;28;45388;-88
2024/01/04 10:34:38;;;;;;;;;9.33;5.00;;;;;10.75;100.00;100708.59;5028807;28;45392;-90
2024/01/04 10:37:17;;;;;;;;;4.00;3.33;;;;;10.51;100.00;100652.47;5043262;28;47054;-87
2024/01/04 10:39:55;;;;;;;;;3.00;3.00;;;;;10.26;100.00;100605.25;5029766;28;45500;-87
2024/01/04 10:42:21;;;;;;;;;6.33;3.67;;;;;10.30;100.00;100605.97;5029177;28;45606;-85
2024/01/04 10:44:54;;;;;;;;;7.67;7.33;;;;;10.21;100.00;100590.56;5033921;28;45709;-88
2024/01/04 10:47:20;;;;;;;;;3.00;2.33;;;;;10.69;100.00;100642.78;5030806;28;45863;-88
2024/01/04 10:49:48;;;;;;;;;10.00;7.00;;;;;11.12;100.00;100723.50;5028305;28;45554;-86
2024/01/04 10:52:16;;;;;;;;;7.33;5.33;;;;;10.52;100.00;100630.41;5029198;28;45500;-86
2024/01/04 10:54:42;;;;;;;;;8.33;5.33;;;;;11.01;100.00;100702.00;5027256;28;45770;-86
2024/01/04 10:57:09;;;;;;;;;8.33;6.67;;;;;11.15;100.00;100708.31;5027050;28;47235;-86
2024/01/04 10:59:35;;;;;;;;;9.00;7.67;;;;;10.88;100.00;100640.91;5047126;28;45439;-89
2024/01/04 11:02:55;;;;;;;;;;;;;;;;;;;;;
2024/01/04 11:05:33;;;;;;;;;5.00;4.00;;;;;10.64;100.00;100574.25;5028927;28;73116;-88
2024/01/04 11:12:33;;;;;;;;;;;;;;;;;;;;;
2024/01/04 11:19:10;;;;;;;;;;;;;;;;;;;;;
2024/01/04 11:22:49;;;;;;;;;;;;;;;;;;;;;
2024/01/04 11:25:34;;;;;;;;;6.67;2.67;;;;;11.24;100.00;100686.66;4893929;29;71563;-88
2024/01/04 11:28:08;;;;;;;;;5.00;4.00;;;;;10.97;100.00;100640.44;4954041;28;45484;-86
2024/01/04 11:30:33;;;;;;;;;3.00;3.00;;;;;11.31;100.00;100677.47;5033092;28;45724;-87
2024/01/04 11:36:21;;;;;;;;;7.67;3.33;;;;;11.30;100.00;100688.13;4970136;28;45537;-86
2024/01/04 11:38:47;;;;;;;;;4.00;3.00;;;;;11.04;100.00;100630.38;5024266;28;45552;-84
2024/01/04 11:41:12;;;;;;;;;5.00;3.67;;;;;11.20;100.00;100641.91;5032412;28;45358;-85